sensor_id;sensor_type;location;lat;lon;timestamp;temperature;humidity
45983;DHT22;31711;47.158;7.346;2022-09-27T00:02:02;10.20;99.90
45983;DHT22;31711;47.158;7.346;2022-09-27T00:04:28;10.20;99.90
45983;DHT22;31711;47.158;7.346;2022-09-27T00:06:54;10.20;99.90
45983;DHT22;31711;47.158;7.346;2022-09-27T00:09:20;10.20;99.90
45983;DHT22;31711;47.158;7.346;2022-09-27T00:11:46;10.20;99.90
45983;DHT22;31711;47.158;7.346;2022-09-27T00:14:16;10.10;99.90
45983;DHT22;31711;47.158;7.346;2022-09-27T00:16:43;10.10;99.90
45983;DHT22;31711;47.158;7.346;2022-09-27T00:19:15;10.10;99.90
45983;DHT22;31711;47.158;7.346;2022-09-27T00:21:42;10.10;99.90
45983;DHT22;31711;47.158;7.346;2022-09-27T00:24:17;10.10;99.90
45983;DHT22;31711;47.158;7.346;2022-09-27T00:26:44;10.10;99.90
45983;DHT22;31711;47.158;7.346;2022-09-27T00:29:13;10.10;99.90
45983;DHT22;31711;47.158;7.346;2022-09-27T00:31:39;10.10;99.90
45983;DHT22;31711;47.158;7.346;2022-09-27T00:34:06;10.10;99.90
45983;DHT22;31711;47.158;7.346;2022-09-27T00:36:33;10.10;99.90
45983;DHT22;31711;47.158;7.346;2022-09-27T00:39:00;10.20;99.90
45983;DHT22;31711;47.158;7.346;2022-09-27T00:41:35;10.20;99.90
45983;DHT22;31711;47.158;7.346;2022-09-27T00:49:56;10.20;99.90
45983;DHT22;31711;47.158;7.346;2022-09-27T00:52:50;10.20;99.90
45983;DHT22;31711;47.158;7.346;2022-09-27T00:55:25;10.30;99.90
45983;DHT22;31711;47.158;7.346;2022-09-27T00:57:53;10.40;99.90
45983;DHT22;31711;47.158;7.346;2022-09-27T01:00:20;10.40;99.90
45983;DHT22;31711;47.158;7.346;2022-09-27T01:02:49;10.40;99.90
45983;DHT22;31711;47.158;7.346;2022-09-27T01:05:17;10.40;99.90
45983;DHT22;31711;47.158;7.346;2022-09-27T01:07:45;10.40;99.90
45983;DHT22;31711;47.158;7.346;2022-09-27T01:10:11;10.40;99.90
45983;DHT22;31711;47.158;7.346;2022-09-27T01:26:10;10.40;99.90
45983;DHT22;31711;47.158;7.346;2022-09-27T01:32:06;10.30;99.90
45983;DHT22;31711;47.158;7.346;2022-09-27T01:34:54;10.40;99.90
45983;DHT22;31711;47.158;7.346;2022-09-27T01:37:47;10.40;99.90
45983;DHT22;31711;47.158;7.346;2022-09-27T01:43:31;10.40;99.90
45983;DHT22;31711;47.158;7.346;2022-09-27T01:46:44;10.40;99.90
45983;DHT22;31711;47.158;7.346;2022-09-27T01:49:12;10.40;99.90
45983;DHT22;31711;47.158;7.346;2022-09-27T01:51:51;10.40;99.90
45983;DHT22;31711;47.158;7.346;2022-09-27T01:54:25;10.40;99.90
45983;DHT22;31711;47.158;7.346;2022-09-27T01:56:55;10.30;99.90
45983;DHT22;31711;47.158;7.346;2022-09-27T01:59:42;10.30;99.90
45983;DHT22;31711;47.158;7.346;2022-09-27T02:02:09;10.30;99.90
45983;DHT22;31711;47.158;7.346;2022-09-27T02:04:39;10.20;99.90
45983;DHT22;31711;47.158;7.346;2022-09-27T02:07:30;10.20;99.90
45983;DHT22;31711;47.158;7.346;2022-09-27T02:10:04;10.20;99.90
45983;DHT22;31711;47.158;7.346;2022-09-27T02:12:39;10.20;99.90
45983;DHT22;31711;47.158;7.346;2022-09-27T02:15:10;10.20;99.90
45983;DHT22;31711;47.158;7.346;2022-09-27T02:20:30;10.10;99.90
45983;DHT22;31711;47.158;7.346;2022-09-27T02:25:55;10.10;99.90
45983;DHT22;31711;47.158;7.346;2022-09-27T02:28:39;10.10;99.90
45983;DHT22;31711;47.158;7.346;2022-09-27T02:31:07;10.10;99.90
45983;DHT22;31711;47.158;7.346;2022-09-27T02:33:38;10.10;99.90
45983;DHT22;31711;47.158;7.346;2022-09-27T02:36:05;10.10;99.90
45983;DHT22;31711;47.158;7.346;2022-09-27T02:38:32;10.10;99.90
45983;DHT22;31711;47.158;7.346;2022-09-27T02:40:58;10.10;99.90
45983;DHT22;31711;47.158;7.346;2022-09-27T02:43:27;10.10;99.90
45983;DHT22;31711;47.158;7.346;2022-09-27T02:52:03;10.00;99.90
45983;DHT22;31711;47.158;7.346;2022-09-27T02:55:24;10.10;99.90
45983;DHT22;31711;47.158;7.346;2022-09-27T03:00:20;10.00;99.90
45983;DHT22;31711;47.158;7.346;2022-09-27T03:05:44;10.00;99.90
45983;DHT22;31711;47.158;7.346;2022-09-27T03:08:12;10.00;99.90
45983;DHT22;31711;47.158;7.346;2022-09-27T03:10:38;10.10;99.90
45983;DHT22;31711;47.158;7.346;2022-09-27T03:13:04;10.00;99.90
45983;DHT22;31711;47.158;7.346;2022-09-27T03:15:31;10.10;99.90
45983;DHT22;31711;47.158;7.346;2022-09-27T03:17:57;10.10;99.90
45983;DHT22;31711;47.158;7.346;2022-09-27T03:20:23;10.10;99.90
45983;DHT22;31711;47.158;7.346;2022-09-27T03:22:49;10.00;99.90
45983;DHT22;31711;47.158;7.346;2022-09-27T03:25:15;10.10;99.90
45983;DHT22;31711;47.158;7.346;2022-09-27T03:27:42;10.10;99.90
45983;DHT22;31711;47.158;7.346;2022-09-27T03:30:09;10.10;99.90
45983;DHT22;31711;47.158;7.346;2022-09-27T03:32:35;10.10;99.90
45983;DHT22;31711;47.158;7.346;2022-09-27T03:35:01;10.10;99.90
45983;DHT22;31711;47.158;7.346;2022-09-27T03:37:27;10.00;99.90
45983;DHT22;31711;47.158;7.346;2022-09-27T03:39:54;10.00;99.90
45983;DHT22;31711;47.158;7.346;2022-09-27T03:42:20;9.90;99.90
45983;DHT22;31711;47.158;7.346;2022-09-27T03:44:46;9.90;99.90
45983;DHT22;31711;47.158;7.346;2022-09-27T03:47:12;9.90;99.90
45983;DHT22;31711;47.158;7.346;2022-09-27T03:49:38;9.90;99.90
45983;DHT22;31711;47.158;7.346;2022-09-27T03:52:04;9.90;99.90
45983;DHT22;31711;47.158;7.346;2022-09-27T03:54:30;9.80;99.90
45983;DHT22;31711;47.158;7.346;2022-09-27T03:56:56;9.90;99.90
45983;DHT22;31711;47.158;7.346;2022-09-27T03:59:22;9.90;99.90
45983;DHT22;31711;47.158;7.346;2022-09-27T04:01:48;9.90;99.90
45983;DHT22;31711;47.158;7.346;2022-09-27T04:04:14;9.90;99.90
45983;DHT22;31711;47.158;7.346;2022-09-27T04:06:40;9.90;99.90
45983;DHT22;31711;47.158;7.346;2022-09-27T04:09:06;9.90;99.90
45983;DHT22;31711;47.158;7.346;2022-09-27T04:11:32;10.00;99.90
45983;DHT22;31711;47.158;7.346;2022-09-27T04:13:57;10.00;99.90
45983;DHT22;31711;47.158;7.346;2022-09-27T04:16:24;10.10;99.90
45983;DHT22;31711;47.158;7.346;2022-09-27T04:18:50;10.10;99.90
45983;DHT22;31711;47.158;7.346;2022-09-27T04:21:16;10.00;99.90
45983;DHT22;31711;47.158;7.346;2022-09-27T04:23:42;10.10;99.90
45983;DHT22;31711;47.158;7.346;2022-09-27T04:26:08;10.10;99.90
45983;DHT22;31711;47.158;7.346;2022-09-27T04:28:34;10.10;99.90
45983;DHT22;31711;47.158;7.346;2022-09-27T04:31:00;10.20;99.90
45983;DHT22;31711;47.158;7.346;2022-09-27T04:33:26;10.10;99.90
45983;DHT22;31711;47.158;7.346;2022-09-27T04:35:52;10.10;99.90
45983;DHT22;31711;47.158;7.346;2022-09-27T04:38:36;10.00;99.90
45983;DHT22;31711;47.158;7.346;2022-09-27T04:41:02;10.00;99.90
45983;DHT22;31711;47.158;7.346;2022-09-27T04:43:28;10.00;99.90
45983;DHT22;31711;47.158;7.346;2022-09-27T04:45:54;10.00;99.90
45983;DHT22;31711;47.158;7.346;2022-09-27T04:48:20;10.00;99.90
45983;DHT22;31711;47.158;7.346;2022-09-27T04:50:46;10.00;99.90
45983;DHT22;31711;47.158;7.346;2022-09-27T04:53:14;10.00;99.90
45983;DHT22;31711;47.158;7.346;2022-09-27T04:55:45;9.90;99.90
45983;DHT22;31711;47.158;7.346;2022-09-27T04:58:11;9.80;99.90
45983;DHT22;31711;47.158;7.346;2022-09-27T05:00:37;9.80;99.90
45983;DHT22;31711;47.158;7.346;2022-09-27T05:03:03;9.80;99.90
45983;DHT22;31711;47.158;7.346;2022-09-27T05:05:29;9.70;99.90
45983;DHT22;31711;47.158;7.346;2022-09-27T05:07:55;9.70;99.90
45983;DHT22;31711;47.158;7.346;2022-09-27T05:10:21;9.60;99.90
45983;DHT22;31711;47.158;7.346;2022-09-27T05:12:47;9.60;99.90
45983;DHT22;31711;47.158;7.346;2022-09-27T05:15:13;9.70;99.90
45983;DHT22;31711;47.158;7.346;2022-09-27T05:17:39;9.70;99.90
45983;DHT22;31711;47.158;7.346;2022-09-27T05:20:05;9.70;99.90
45983;DHT22;31711;47.158;7.346;2022-09-27T05:22:31;9.60;99.90
45983;DHT22;31711;47.158;7.346;2022-09-27T05:24:57;9.70;99.90
45983;DHT22;31711;47.158;7.346;2022-09-27T05:27:22;9.70;99.90
45983;DHT22;31711;47.158;7.346;2022-09-27T05:29:48;9.70;99.90
45983;DHT22;31711;47.158;7.346;2022-09-27T05:32:15;9.70;99.90
45983;DHT22;31711;47.158;7.346;2022-09-27T05:34:41;9.70;99.90
45983;DHT22;31711;47.158;7.346;2022-09-27T05:37:07;9.70;99.90
45983;DHT22;31711;47.158;7.346;2022-09-27T05:39:33;9.70;99.90
45983;DHT22;31711;47.158;7.346;2022-09-27T05:41:59;9.60;99.90
45983;DHT22;31711;47.158;7.346;2022-09-27T05:44:27;9.60;99.90
45983;DHT22;31711;47.158;7.346;2022-09-27T05:46:53;9.60;99.90
45983;DHT22;31711;47.158;7.346;2022-09-27T05:49:19;9.50;99.90
45983;DHT22;31711;47.158;7.346;2022-09-27T05:51:45;9.50;99.90
45983;DHT22;31711;47.158;7.346;2022-09-27T05:54:12;9.50;99.90
45983;DHT22;31711;47.158;7.346;2022-09-27T05:56:38;9.50;99.90
45983;DHT22;31711;47.158;7.346;2022-09-27T05:59:03;9.50;99.90
45983;DHT22;31711;47.158;7.346;2022-09-27T06:01:29;9.60;99.90
45983;DHT22;31711;47.158;7.346;2022-09-27T06:03:55;9.60;99.90
45983;DHT22;31711;47.158;7.346;2022-09-27T06:06:21;9.60;99.90
45983;DHT22;31711;47.158;7.346;2022-09-27T06:08:48;9.70;99.90
45983;DHT22;31711;47.158;7.346;2022-09-27T06:11:14;9.70;99.90
45983;DHT22;31711;47.158;7.346;2022-09-27T06:13:40;9.80;99.90
45983;DHT22;31711;47.158;7.346;2022-09-27T06:16:09;9.80;99.90
45983;DHT22;31711;47.158;7.346;2022-09-27T06:18:36;9.70;99.90
45983;DHT22;31711;47.158;7.346;2022-09-27T06:21:03;9.70;99.90
45983;DHT22;31711;47.158;7.346;2022-09-27T06:23:30;9.80;99.90
45983;DHT22;31711;47.158;7.346;2022-09-27T06:26:05;9.80;99.90
45983;DHT22;31711;47.158;7.346;2022-09-27T06:28:31;9.80;99.90
45983;DHT22;31711;47.158;7.346;2022-09-27T06:30:59;9.80;99.90
45983;DHT22;31711;47.158;7.346;2022-09-27T06:33:26;9.80;99.90
45983;DHT22;31711;47.158;7.346;2022-09-27T06:35:55;9.70;99.90
45983;DHT22;31711;47.158;7.346;2022-09-27T06:38:21;9.70;99.90
45983;DHT22;31711;47.158;7.346;2022-09-27T06:40:47;9.70;99.90
45983;DHT22;31711;47.158;7.346;2022-09-27T06:43:15;9.80;99.90
45983;DHT22;31711;47.158;7.346;2022-09-27T06:45:42;9.80;99.90
45983;DHT22;31711;47.158;7.346;2022-09-27T06:48:10;9.80;99.90
45983;DHT22;31711;47.158;7.346;2022-09-27T06:50:38;9.90;99.90
45983;DHT22;31711;47.158;7.346;2022-09-27T06:53:07;10.00;99.90
45983;DHT22;31711;47.158;7.346;2022-09-27T06:55:33;10.10;99.90
45983;DHT22;31711;47.158;7.346;2022-09-27T06:58:00;10.20;99.90
45983;DHT22;31711;47.158;7.346;2022-09-27T07:00:50;10.10;99.90
45983;DHT22;31711;47.158;7.346;2022-09-27T07:03:17;10.00;99.90
45983;DHT22;31711;47.158;7.346;2022-09-27T07:05:56;10.00;99.90
45983;DHT22;31711;47.158;7.346;2022-09-27T07:08:23;10.00;99.90
45983;DHT22;31711;47.158;7.346;2022-09-27T07:10:51;10.00;99.90
45983;DHT22;31711;47.158;7.346;2022-09-27T07:13:17;9.80;99.90
45983;DHT22;31711;47.158;7.346;2022-09-27T07:15:43;9.80;99.90
45983;DHT22;31711;47.158;7.346;2022-09-27T07:18:10;9.90;99.90
45983;DHT22;31711;47.158;7.346;2022-09-27T07:20:36;9.90;99.90
45983;DHT22;31711;47.158;7.346;2022-09-27T07:23:04;10.00;99.90
45983;DHT22;31711;47.158;7.346;2022-09-27T07:25:31;10.00;99.90
45983;DHT22;31711;47.158;7.346;2022-09-27T07:28:01;10.10;99.90
45983;DHT22;31711;47.158;7.346;2022-09-27T07:30:28;10.40;99.90
45983;DHT22;31711;47.158;7.346;2022-09-27T07:32:58;10.40;99.90
45983;DHT22;31711;47.158;7.346;2022-09-27T07:35:25;10.60;99.90
45983;DHT22;31711;47.158;7.346;2022-09-27T07:37:52;10.60;99.90
45983;DHT22;31711;47.158;7.346;2022-09-27T07:40:18;10.70;99.90
45983;DHT22;31711;47.158;7.346;2022-09-27T07:42:44;11.00;99.90
45983;DHT22;31711;47.158;7.346;2022-09-27T07:45:10;10.90;99.90
45983;DHT22;31711;47.158;7.346;2022-09-27T07:47:38;11.10;99.90
45983;DHT22;31711;47.158;7.346;2022-09-27T07:50:05;11.20;99.90
45983;DHT22;31711;47.158;7.346;2022-09-27T07:52:41;11.30;99.90
45983;DHT22;31711;47.158;7.346;2022-09-27T07:55:10;11.30;99.90
45983;DHT22;31711;47.158;7.346;2022-09-27T07:57:37;11.30;99.90
45983;DHT22;31711;47.158;7.346;2022-09-27T08:00:06;11.30;99.90
45983;DHT22;31711;47.158;7.346;2022-09-27T08:02:32;11.30;99.90
45983;DHT22;31711;47.158;7.346;2022-09-27T08:04:59;11.30;99.90
45983;DHT22;31711;47.158;7.346;2022-09-27T08:07:25;11.20;99.90
45983;DHT22;31711;47.158;7.346;2022-09-27T08:09:51;11.20;99.90
45983;DHT22;31711;47.158;7.346;2022-09-27T08:12:17;11.20;99.90
45983;DHT22;31711;47.158;7.346;2022-09-27T08:14:47;11.10;99.90
45983;DHT22;31711;47.158;7.346;2022-09-27T08:17:13;11.20;99.90
45983;DHT22;31711;47.158;7.346;2022-09-27T08:19:39;11.20;99.90
45983;DHT22;31711;47.158;7.346;2022-09-27T08:22:08;11.30;99.90
45983;DHT22;31711;47.158;7.346;2022-09-27T08:24:34;11.30;99.90
45983;DHT22;31711;47.158;7.346;2022-09-27T08:27:01;11.20;99.90
45983;DHT22;31711;47.158;7.346;2022-09-27T08:29:27;11.20;99.90
45983;DHT22;31711;47.158;7.346;2022-09-27T08:31:53;11.10;99.90
45983;DHT22;31711;47.158;7.346;2022-09-27T08:34:19;11.20;99.90
45983;DHT22;31711;47.158;7.346;2022-09-27T08:36:46;11.30;99.90
45983;DHT22;31711;47.158;7.346;2022-09-27T08:39:13;11.30;99.90
45983;DHT22;31711;47.158;7.346;2022-09-27T08:44:33;11.50;99.90
45983;DHT22;31711;47.158;7.346;2022-09-27T08:47:28;11.60;99.90
45983;DHT22;31711;47.158;7.346;2022-09-27T08:52:41;11.90;99.90
45983;DHT22;31711;47.158;7.346;2022-09-27T08:55:33;11.90;99.90
45983;DHT22;31711;47.158;7.346;2022-09-27T08:58:08;12.00;99.90
45983;DHT22;31711;47.158;7.346;2022-09-27T09:00:36;12.10;99.90
45983;DHT22;31711;47.158;7.346;2022-09-27T09:03:03;12.10;99.90
45983;DHT22;31711;47.158;7.346;2022-09-27T09:05:31;12.00;99.90
45983;DHT22;31711;47.158;7.346;2022-09-27T09:19:29;10.80;99.90
45983;DHT22;31711;47.158;7.346;2022-09-27T09:24:57;11.00;99.90
45983;DHT22;31711;47.158;7.346;2022-09-27T09:38:22;11.60;99.90
45983;DHT22;31711;47.158;7.346;2022-09-27T09:41:17;11.50;99.90
45983;DHT22;31711;47.158;7.346;2022-09-27T09:43:55;11.50;99.90
45983;DHT22;31711;47.158;7.346;2022-09-27T09:46:29;11.50;99.90
45983;DHT22;31711;47.158;7.346;2022-09-27T09:49:04;11.40;99.90
45983;DHT22;31711;47.158;7.346;2022-09-27T09:51:40;11.30;99.90
45983;DHT22;31711;47.158;7.346;2022-09-27T09:54:27;11.40;99.90
45983;DHT22;31711;47.158;7.346;2022-09-27T09:59:41;11.60;99.90
45983;DHT22;31711;47.158;7.346;2022-09-27T10:02:34;11.70;99.90
45983;DHT22;31711;47.158;7.346;2022-09-27T10:05:00;11.70;99.90
45983;DHT22;31711;47.158;7.346;2022-09-27T10:07:28;11.90;99.90
45983;DHT22;31711;47.158;7.346;2022-09-27T10:09:58;12.10;99.90
45983;DHT22;31711;47.158;7.346;2022-09-27T10:12:24;12.30;99.90
45983;DHT22;31711;47.158;7.346;2022-09-27T10:14:52;12.40;99.90
45983;DHT22;31711;47.158;7.346;2022-09-27T10:17:22;12.60;99.90
45983;DHT22;31711;47.158;7.346;2022-09-27T10:19:49;12.70;99.90
45983;DHT22;31711;47.158;7.346;2022-09-27T10:22:39;12.80;99.90
45983;DHT22;31711;47.158;7.346;2022-09-27T10:25:08;12.90;99.90
45983;DHT22;31711;47.158;7.346;2022-09-27T10:27:45;13.00;99.90
45983;DHT22;31711;47.158;7.346;2022-09-27T10:32:51;13.10;99.90
45983;DHT22;31711;47.158;7.346;2022-09-27T10:35:28;13.20;99.90
45983;DHT22;31711;47.158;7.346;2022-09-27T10:40:42;13.20;99.90
45983;DHT22;31711;47.158;7.346;2022-09-27T10:43:28;13.20;99.90
45983;DHT22;31711;47.158;7.346;2022-09-27T10:48:39;12.80;99.90
45983;DHT22;31711;47.158;7.346;2022-09-27T10:51:25;12.60;99.90
45983;DHT22;31711;47.158;7.346;2022-09-27T10:53:52;12.50;99.90
45983;DHT22;31711;47.158;7.346;2022-09-27T10:56:25;12.20;99.90
45983;DHT22;31711;47.158;7.346;2022-09-27T10:58:53;12.00;99.90
45983;DHT22;31711;47.158;7.346;2022-09-27T11:01:20;11.80;99.90
45983;DHT22;31711;47.158;7.346;2022-09-27T11:03:49;11.70;99.90
45983;DHT22;31711;47.158;7.346;2022-09-27T11:06:35;11.70;99.90
45983;DHT22;31711;47.158;7.346;2022-09-27T11:09:10;11.80;99.90
45983;DHT22;31711;47.158;7.346;2022-09-27T11:11:40;11.80;99.90
45983;DHT22;31711;47.158;7.346;2022-09-27T11:14:29;11.80;99.90
45983;DHT22;31711;47.158;7.346;2022-09-27T11:17:12;11.70;99.90
45983;DHT22;31711;47.158;7.346;2022-09-27T11:31:05;11.50;99.90
45983;DHT22;31711;47.158;7.346;2022-09-27T11:41:42;11.60;99.90
45983;DHT22;31711;47.158;7.346;2022-09-27T11:44:18;11.60;99.90
45983;DHT22;31711;47.158;7.346;2022-09-27T11:47:02;11.50;99.90
45983;DHT22;31711;47.158;7.346;2022-09-27T12:00:22;11.80;99.90
45983;DHT22;31711;47.158;7.346;2022-09-27T12:06:00;12.00;99.90
45983;DHT22;31711;47.158;7.346;2022-09-27T12:08:39;12.00;99.90
45983;DHT22;31711;47.158;7.346;2022-09-27T12:13:45;12.00;99.90
45983;DHT22;31711;47.158;7.346;2022-09-27T12:16:12;12.10;99.90
45983;DHT22;31711;47.158;7.346;2022-09-27T12:18:40;12.10;99.90
45983;DHT22;31711;47.158;7.346;2022-09-27T12:21:09;12.20;99.90
45983;DHT22;31711;47.158;7.346;2022-09-27T12:26:09;12.50;99.90
45983;DHT22;31711;47.158;7.346;2022-09-27T12:28:48;12.50;99.90
45983;DHT22;31711;47.158;7.346;2022-09-27T12:37:30;12.40;99.90
45983;DHT22;31711;47.158;7.346;2022-09-27T12:40:00;12.50;99.90
45983;DHT22;31711;47.158;7.346;2022-09-27T12:45:12;12.70;99.90
45983;DHT22;31711;47.158;7.346;2022-09-27T12:53:11;12.50;99.90
45983;DHT22;31711;47.158;7.346;2022-09-27T12:58:51;12.40;99.90
45983;DHT22;31711;47.158;7.346;2022-09-27T13:08:08;12.20;99.90
45983;DHT22;31711;47.158;7.346;2022-09-27T13:11:05;12.10;99.90
45983;DHT22;31711;47.158;7.346;2022-09-27T13:13:26;11.90;99.90
45983;DHT22;31711;47.158;7.346;2022-09-27T13:15:57;12.00;99.90
45983;DHT22;31711;47.158;7.346;2022-09-27T13:18:31;11.90;99.90
45983;DHT22;31711;47.158;7.346;2022-09-27T13:20:57;11.80;99.90
45983;DHT22;31711;47.158;7.346;2022-09-27T13:25:55;11.60;99.90
45983;DHT22;31711;47.158;7.346;2022-09-27T13:30:58;11.50;99.90
45983;DHT22;31711;47.158;7.346;2022-09-27T13:36:28;11.50;99.90
45983;DHT22;31711;47.158;7.346;2022-09-27T13:46:55;11.50;99.90
45983;DHT22;31711;47.158;7.346;2022-09-27T13:49:36;11.60;99.90
45983;DHT22;31711;47.158;7.346;2022-09-27T13:52:14;11.60;99.90
45983;DHT22;31711;47.158;7.346;2022-09-27T13:54:55;11.80;99.90
45983;DHT22;31711;47.158;7.346;2022-09-27T14:00:19;11.90;99.90
45983;DHT22;31711;47.158;7.346;2022-09-27T14:05:40;12.00;99.90
45983;DHT22;31711;47.158;7.346;2022-09-27T14:08:36;12.00;99.90
45983;DHT22;31711;47.158;7.346;2022-09-27T14:11:09;12.10;99.90
45983;DHT22;31711;47.158;7.346;2022-09-27T14:13:37;12.20;99.90
45983;DHT22;31711;47.158;7.346;2022-09-27T14:16:04;12.00;99.90
45983;DHT22;31711;47.158;7.346;2022-09-27T14:18:32;12.10;99.90
45983;DHT22;31711;47.158;7.346;2022-09-27T14:23:51;12.00;99.90
45983;DHT22;31711;47.158;7.346;2022-09-27T14:26:25;12.00;99.90
45983;DHT22;31711;47.158;7.346;2022-09-27T14:28:51;12.20;99.90
45983;DHT22;31711;47.158;7.346;2022-09-27T14:31:23;12.20;99.90
45983;DHT22;31711;47.158;7.346;2022-09-27T14:33:50;12.30;99.90
45983;DHT22;31711;47.158;7.346;2022-09-27T14:36:30;12.20;99.90
45983;DHT22;31711;47.158;7.346;2022-09-27T14:39:34;12.10;99.90
45983;DHT22;31711;47.158;7.346;2022-09-27T14:42:04;11.90;99.90
45983;DHT22;31711;47.158;7.346;2022-09-27T14:44:43;11.70;99.90
45983;DHT22;31711;47.158;7.346;2022-09-27T14:47:23;11.70;99.90
45983;DHT22;31711;47.158;7.346;2022-09-27T14:49:58;11.60;99.90
45983;DHT22;31711;47.158;7.346;2022-09-27T14:52:31;11.60;99.90
45983;DHT22;31711;47.158;7.346;2022-09-27T14:55:11;11.60;99.90
45983;DHT22;31711;47.158;7.346;2022-09-27T14:57:39;11.50;99.90
45983;DHT22;31711;47.158;7.346;2022-09-27T15:00:25;11.40;99.90
45983;DHT22;31711;47.158;7.346;2022-09-27T15:02:55;11.30;99.90
45983;DHT22;31711;47.158;7.346;2022-09-27T15:05:26;11.20;99.90
45983;DHT22;31711;47.158;7.346;2022-09-27T15:07:54;11.20;99.90
45983;DHT22;31711;47.158;7.346;2022-09-27T15:10:26;11.30;99.90
45983;DHT22;31711;47.158;7.346;2022-09-27T15:12:54;11.30;99.90
45983;DHT22;31711;47.158;7.346;2022-09-27T15:15:27;11.30;99.90
45983;DHT22;31711;47.158;7.346;2022-09-27T15:17:55;11.30;99.90
45983;DHT22;31711;47.158;7.346;2022-09-27T15:22:54;11.30;99.90
45983;DHT22;31711;47.158;7.346;2022-09-27T15:25:32;11.40;99.90
45983;DHT22;31711;47.158;7.346;2022-09-27T15:28:05;11.30;99.90
45983;DHT22;31711;47.158;7.346;2022-09-27T15:30:39;11.40;99.90
45983;DHT22;31711;47.158;7.346;2022-09-27T15:33:21;11.40;99.90
45983;DHT22;31711;47.158;7.346;2022-09-27T15:35:56;11.30;99.90
45983;DHT22;31711;47.158;7.346;2022-09-27T15:41:01;11.30;99.90
45983;DHT22;31711;47.158;7.346;2022-09-27T15:45:58;11.10;99.90
45983;DHT22;31711;47.158;7.346;2022-09-27T15:48:31;10.90;99.90
45983;DHT22;31711;47.158;7.346;2022-09-27T15:50:58;10.80;99.90
45983;DHT22;31711;47.158;7.346;2022-09-27T15:56:04;10.60;99.90
45983;DHT22;31711;47.158;7.346;2022-09-27T15:58:32;10.60;99.90
45983;DHT22;31711;47.158;7.346;2022-09-27T16:01:00;10.50;99.90
45983;DHT22;31711;47.158;7.346;2022-09-27T16:03:33;10.50;99.90
45983;DHT22;31711;47.158;7.346;2022-09-27T16:06:02;10.40;99.90
45983;DHT22;31711;47.158;7.346;2022-09-27T16:08:28;10.50;99.90
45983;DHT22;31711;47.158;7.346;2022-09-27T16:10:56;10.50;99.90
45983;DHT22;31711;47.158;7.346;2022-09-27T16:13:24;10.40;99.90
45983;DHT22;31711;47.158;7.346;2022-09-27T16:15:50;10.40;99.90
45983;DHT22;31711;47.158;7.346;2022-09-27T16:18:17;10.40;99.90
45983;DHT22;31711;47.158;7.346;2022-09-27T16:20:43;10.40;99.90
45983;DHT22;31711;47.158;7.346;2022-09-27T16:23:09;10.40;99.90
45983;DHT22;31711;47.158;7.346;2022-09-27T16:25:35;10.40;99.90
45983;DHT22;31711;47.158;7.346;2022-09-27T16:28:03;10.40;99.90
45983;DHT22;31711;47.158;7.346;2022-09-27T16:30:29;10.40;99.90
45983;DHT22;31711;47.158;7.346;2022-09-27T16:32:56;10.30;99.90
45983;DHT22;31711;47.158;7.346;2022-09-27T16:35:23;10.30;99.90
45983;DHT22;31711;47.158;7.346;2022-09-27T16:37:49;10.20;99.90
45983;DHT22;31711;47.158;7.346;2022-09-27T16:40:16;10.20;99.90
45983;DHT22;31711;47.158;7.346;2022-09-27T16:42:48;10.20;99.90
45983;DHT22;31711;47.158;7.346;2022-09-27T16:45:14;10.10;99.90
45983;DHT22;31711;47.158;7.346;2022-09-27T16:47:41;10.10;99.90
45983;DHT22;31711;47.158;7.346;2022-09-27T16:50:10;10.10;99.90
45983;DHT22;31711;47.158;7.346;2022-09-27T16:52:55;10.10;99.90
45983;DHT22;31711;47.158;7.346;2022-09-27T16:55:21;10.10;99.90
45983;DHT22;31711;47.158;7.346;2022-09-27T16:57:48;10.10;99.90
45983;DHT22;31711;47.158;7.346;2022-09-27T17:00:15;10.20;99.90
45983;DHT22;31711;47.158;7.346;2022-09-27T17:02:41;10.20;99.90
45983;DHT22;31711;47.158;7.346;2022-09-27T17:05:12;10.10;99.90
45983;DHT22;31711;47.158;7.346;2022-09-27T17:07:38;10.00;99.90
45983;DHT22;31711;47.158;7.346;2022-09-27T17:10:05;10.00;99.90
45983;DHT22;31711;47.158;7.346;2022-09-27T17:12:32;10.00;99.90
45983;DHT22;31711;47.158;7.346;2022-09-27T17:14:57;10.00;99.90
45983;DHT22;31711;47.158;7.346;2022-09-27T17:17:24;9.90;99.90
45983;DHT22;31711;47.158;7.346;2022-09-27T17:19:50;9.80;99.90
45983;DHT22;31711;47.158;7.346;2022-09-27T17:22:16;9.80;99.90
45983;DHT22;31711;47.158;7.346;2022-09-27T17:24:42;9.70;99.90
45983;DHT22;31711;47.158;7.346;2022-09-27T17:27:08;9.70;99.90
45983;DHT22;31711;47.158;7.346;2022-09-27T17:29:34;9.70;99.90
45983;DHT22;31711;47.158;7.346;2022-09-27T17:32:00;9.70;99.90
45983;DHT22;31711;47.158;7.346;2022-09-27T17:34:26;9.70;99.90
45983;DHT22;31711;47.158;7.346;2022-09-27T17:36:53;9.70;99.90
45983;DHT22;31711;47.158;7.346;2022-09-27T17:39:19;9.70;99.90
45983;DHT22;31711;47.158;7.346;2022-09-27T17:41:47;9.80;99.90
45983;DHT22;31711;47.158;7.346;2022-09-27T17:44:14;9.80;99.90
45983;DHT22;31711;47.158;7.346;2022-09-27T17:46:41;9.80;99.90
45983;DHT22;31711;47.158;7.346;2022-09-27T17:49:09;9.80;99.90
45983;DHT22;31711;47.158;7.346;2022-09-27T17:51:53;9.80;99.90
45983;DHT22;31711;47.158;7.346;2022-09-27T17:54:22;9.90;99.90
45983;DHT22;31711;47.158;7.346;2022-09-27T17:56:49;9.90;99.90
45983;DHT22;31711;47.158;7.346;2022-09-27T17:59:16;9.80;99.90
45983;DHT22;31711;47.158;7.346;2022-09-27T18:01:43;9.90;99.90
45983;DHT22;31711;47.158;7.346;2022-09-27T18:04:12;9.90;99.90
45983;DHT22;31711;47.158;7.346;2022-09-27T18:06:41;9.90;99.90
45983;DHT22;31711;47.158;7.346;2022-09-27T18:09:11;10.00;99.90
45983;DHT22;31711;47.158;7.346;2022-09-27T18:11:37;10.00;99.90
45983;DHT22;31711;47.158;7.346;2022-09-27T18:14:04;10.00;99.90
45983;DHT22;31711;47.158;7.346;2022-09-27T18:16:33;10.00;99.90
45983;DHT22;31711;47.158;7.346;2022-09-27T18:19:03;10.00;99.90
45983;DHT22;31711;47.158;7.346;2022-09-27T18:21:30;10.00;99.90
45983;DHT22;31711;47.158;7.346;2022-09-27T18:23:57;10.00;99.90
45983;DHT22;31711;47.158;7.346;2022-09-27T18:26:25;10.00;99.90
45983;DHT22;31711;47.158;7.346;2022-09-27T18:28:53;10.00;99.90
45983;DHT22;31711;47.158;7.346;2022-09-27T18:31:20;10.00;99.90
45983;DHT22;31711;47.158;7.346;2022-09-27T18:33:47;10.00;99.90
45983;DHT22;31711;47.158;7.346;2022-09-27T18:36:18;10.10;99.90
45983;DHT22;31711;47.158;7.346;2022-09-27T18:38:46;10.00;99.90
45983;DHT22;31711;47.158;7.346;2022-09-27T18:41:18;10.10;99.90
45983;DHT22;31711;47.158;7.346;2022-09-27T18:43:44;10.10;99.90
45983;DHT22;31711;47.158;7.346;2022-09-27T18:46:16;10.10;99.90
45983;DHT22;31711;47.158;7.346;2022-09-27T18:48:44;10.10;99.90
45983;DHT22;31711;47.158;7.346;2022-09-27T18:51:17;10.00;99.90
45983;DHT22;31711;47.158;7.346;2022-09-27T18:53:44;10.00;99.90
45983;DHT22;31711;47.158;7.346;2022-09-27T18:56:13;10.00;99.90